Flight Track Log - Related Links

Times and Time Zones

All times are in EDT time to prevent confusion due to time zone crossing. See the N1926A flight status page for this flight to view local times or setup timezone preferences in your user account.

Time Position Orientation Groundspeed Altitude Reporting Facility
EDT Latitude Longitude Course Direction KTS MPH feet Rate Location/Type
Mon 01:40:19 PM 32.6158 -85.8858 North 153 176 25,000  Level Atlanta Center
Mon 01:41:19 PM 32.6514 -85.8767 12° North 153 176 8,200 -7,700 Descending Atlanta Center
Mon 01:42:19 PM 32.6911 -85.8603 19° North 142 163 9,600 1,450 Climbing Atlanta Center
Mon 01:43:19 PM 32.7394 -85.8539 North 153 176 11,100 1,450 Climbing Atlanta Center
Mon 01:44:19 PM 32.7917 -85.8500 North 171 197 12,500 1,500 Climbing Atlanta Center
Mon 01:45:00 PM 32.8530 -85.8500 North  Level FlightAware Approximate
Mon 01:45:19 PM 32.8458 -85.8461 North 183 211 14,100  Level Atlanta Center
Mon 01:46:19 PM 32.8961 -85.8397 North 183 211 15,800 1,450 Climbing Atlanta Center
Mon 01:47:19 PM 32.9461 -85.8408 359° North 178 205 17,000 1,100 Climbing Atlanta Center
Mon 01:48:19 PM 32.9942 -85.8394 North 178 205 18,000 1,100 Climbing Atlanta Center
Mon 01:49:19 PM 33.0464 -85.8381 North 178 205 19,200 1,100 Climbing Atlanta Center
Mon 01:50:19 PM 33.0964 -85.8414 357° North 178 205 20,200 1,000 Climbing Atlanta Center
Mon 01:51:19 PM 33.1486 -85.8425 359° North 178 205 21,200 1,000 Climbing Atlanta Center
Mon 01:52:19 PM 33.2008 -85.8411 North 178 205 22,200 950 Climbing Atlanta Center
Mon 01:53:19 PM 33.2531 -85.8422 359° North 178 205 23,100 900 Climbing Atlanta Center
Mon 01:54:19 PM 33.3072 -85.8408 North 178 205 24,000 850 Climbing Atlanta Center
Mon 01:55:19 PM 33.3594 -85.8369 North 183 211 24,800 500 Climbing Atlanta Center
Mon 01:56:19 PM 33.4139 -85.8331 North 183 211 25,000 100 Climbing Atlanta Center
Mon 01:57:19 PM 33.4764 -85.8319 North 197 227 25,000  Level Atlanta Center
Mon 01:58:19 PM 33.5411 -85.8283 North 214 246 25,000  Level Atlanta Center
Mon 01:59:19 PM 33.6058 -85.8272 North 219 252 25,000  Level Atlanta Center
Mon 02:00:19 PM 33.6728 -85.8211 North 233 268 25,000  Level Atlanta Center
Mon 02:01:19 PM 33.7356 -85.8197 North 233 268 25,000  Level Atlanta Center
Mon 02:02:19 PM 33.8022 -85.8189 North 233 268 25,000  Level Atlanta Center
Mon 02:03:19 PM 33.8669 -85.8150 North 233 268 25,000  Level Atlanta Center
Mon 02:04:19 PM 33.9297 -85.8139 North 233 268 25,000  Level Atlanta Center
Mon 02:05:19 PM 33.9944 -85.8103 North 233 268 25,000  Level Atlanta Center
Mon 02:06:19 PM 34.0550 -85.8114 359° North 233 268 25,000  Level Atlanta Center
Mon 02:07:19 PM 34.1072 -85.8100 North 228 262 25,000  Level Atlanta Center
Mon 02:08:19 PM 34.1822 -85.8092 North 236 272 25,000  Level Atlanta Center
Mon 02:09:19 PM 34.2469 -85.8081 North 236 272 25,000  Level Atlanta Center
Mon 02:10:19 PM 34.3097 -85.8042 North 230 265 25,000  Level Atlanta Center
Mon 02:11:19 PM 34.3703 -85.8031 North 230 265 25,000  Level Atlanta Center
Mon 02:12:19 PM 34.4328 -85.7992 North 225 259 25,000  Level Atlanta Center
Mon 02:13:19 PM 34.4975 -85.7981 North 220 253 25,000  Level Atlanta Center
Mon 02:14:19 PM 34.5603 -85.7944 North 220 253 25,000  Level Atlanta Center
Mon 02:15:19 PM 34.6228 -85.7931 North 215 247 25,000  Level Atlanta Center
Mon 02:16:19 PM 34.6856 -85.7894 North 215 247 25,000  Level Atlanta Center
Mon 02:17:19 PM 34.7481 -85.7881 North 215 247 25,000  Level Atlanta Center
Mon 02:18:19 PM 34.8086 -85.7844 North 215 247 25,000  Level Atlanta Center
Mon 02:19:19 PM 34.8650 -85.7831 North 215 247 25,000  Level Atlanta Center
Mon 02:20:19 PM 34.9256 -85.7817 North 215 247 25,000  Level Atlanta Center
Mon 02:21:19 PM 34.9883 -85.7806 North 215 247 25,000  Level Atlanta Center
Mon 02:22:19 PM 35.0531 -85.7794 North 215 247 25,000  Level Atlanta Center
Mon 02:23:32 PM 35.1311 -85.7717 North 223 257 25,000  Level Memphis Center
Mon 02:24:32 PM 35.1917 -85.7708 North 223 257 25,000  Level Memphis Center
Mon 02:25:32 PM 35.2458 -85.7706 360° North 218 251 25,000  Level Memphis Center
Mon 02:26:32 PM 35.3042 -85.7672 North 213 245 25,000 -250 Level Memphis Center
Mon 02:27:32 PM 35.3667 -85.7639 North 213 245 24,500 -500 Descending Memphis Center
Mon 02:28:32 PM 35.4314 -85.7656 359° North 224 258 24,000 -250 Descending Memphis Center
Mon 02:29:32 PM 35.4981 -85.7642 North 230 265 24,000  Level Memphis Center
Mon 02:30:32 PM 35.5583 -85.7608 North 230 265 24,000  Level Memphis Center
Mon 02:31:32 PM 35.6208 -85.7600 North 230 265 24,000  Level Memphis Center
Mon 02:32:32 PM 35.6833 -85.7539 North 230 265 24,000 -50 Level Memphis Center
Mon 02:33:32 PM 35.7436 -85.7531 North 225 259 23,900 -250 Descending Memphis Center
Mon 02:34:32 PM 35.8083 -85.7522 North 220 253 23,500 -350 Descending Memphis Center
Mon 02:35:32 PM 35.8728 -85.7486 North 220 253 23,200 -250 Descending Memphis Center
Mon 02:36:32 PM 35.9372 -85.7450 North 220 253 23,000 -100 Descending Memphis Center
Mon 02:37:32 PM 35.9997 -85.7439 North 225 259 23,000  Level Memphis Center
Mon 02:38:32 PM 36.0622 -85.7431 North 225 259 23,000  Level Memphis Center
Mon 02:39:32 PM 36.1247 -85.7369 North 219 252 23,000  Level Memphis Center
Mon 02:40:32 PM 36.1872 -85.7358 North 219 252 23,000  Level Memphis Center
Mon 02:41:32 PM 36.2517 -85.7322 North 219 252 23,000  Level Memphis Center
Mon 02:42:32 PM 36.3119 -85.7314 North 219 252 23,000  Level Memphis Center
Mon 02:43:32 PM 36.3744 -85.7278 North 219 252 23,000  Level Memphis Center
Mon 02:44:32 PM 36.4369 -85.7242 North 214 246 23,000  Level Memphis Center
Mon 02:45:32 PM 36.4992 -85.7208 North 214 246 23,000 -99 Level Memphis Center
Mon 02:46:33 PM 36.5578 -85.7225 359° North 214 246 22,800 -1,049 Descending Memphis Center
Mon 02:48:58 PM 36.7353 -85.7100 North 266 306 19,400 -1,304 Descending Indianapolis Center
Mon 02:50:00 PM 36.8156 -85.7092 360° North 259 298 18,300 -968 Descending Indianapolis Center
Mon 02:51:02 PM 36.8844 -85.7100 359° North 248 285 17,400 -1,065 Descending Indianapolis Center
Mon 02:52:04 PM 36.9558 -85.7072 North 252 290 16,100 -1,403 Descending Indianapolis Center
Mon 02:53:06 PM 37.0272 -85.7036 North 256 295 14,500 -1,403 Descending Indianapolis Center
Mon 02:54:08 PM 37.0989 -85.7033 360° North 256 295 13,200 -1,355 Descending Indianapolis Center
Mon 02:55:10 PM 37.1686 -85.6994 North 251 289 11,700 -1,403 Descending Indianapolis Center
Mon 02:56:12 PM 37.2394 -85.6986 North 254 292 10,300 -871 Descending Indianapolis Center
Mon 02:57:14 PM 37.3156 -85.6953 North 241 277 9,900 -145 Descending Indianapolis Center
Mon 02:58:16 PM 37.3775 -85.6914 North 225 259 10,000  Climbing Indianapolis Center
Mon 02:59:18 PM 37.4381 -85.6867 North 220 253 9,900 -194 Descending Indianapolis Center
Mon 03:00:20 PM 37.5000 -85.6819 North 222 255 9,600 -1,016 Descending Indianapolis Center
Mon 03:01:22 PM 37.5669 -85.6789 North 239 275 7,800 -1,355 Descending Indianapolis Center
Mon 03:02:24 PM 37.6381 -85.6747 North 254 292 6,800 -823 Descending Indianapolis Center
Mon 03:03:26 PM 37.7142 -85.6606 North 236 272 6,100 -532 Descending Indianapolis Center
Mon 03:04:28 PM 37.7756 -85.6478 North 228 262 5,700 -484 Descending Indianapolis Center
Mon 03:05:30 PM 37.8347 -85.6333 11° North 223 257 5,100 -581 Descending Indianapolis Center
Mon 03:06:32 PM 37.8928 -85.6214 North 218 251 4,500 -532 Descending Indianapolis Center
Mon 03:07:34 PM 37.9503 -85.6097 North 214 246 4,000 -242 Descending Indianapolis Center
Mon 03:08:36 PM 38.0061 -85.6000 North 210 242 4,000  Level Indianapolis Center
Mon 03:09:38 PM 38.0697 -85.5858 10° North 203 234 4,000  Level Indianapolis Center
Mon 03:10:40 PM 38.1231 -85.5736 10° North 202 232 4,000 -798 Level Indianapolis Center
Mon 03:13:00 PM 38.2167 -85.6500 332° Northwest  Level FlightAware Approximate
Mon 03:13:46 PM 38.2167 -85.6500 332° Northwest 105 121 700  Level Louisville TRACON
Mon 03:15:00 PM 38.2280 -85.6637 332° Northwest  Level Estimated
Mon 03:22:00 PM 38.2280 -85.6637 332° Northwest  Level Estimated

Login

Don't have an account? Register now (free) for customized features, flight alerts, and more!